sensor_id;sensor_type;location;lat;lon;timestamp;P1;durP1;ratioP1;P2;durP2;ratioP2
13457;SDS011;6801;53.018;11.560;2023-12-20T00:01:14;2.08;;;0.50;;
13457;SDS011;6801;53.018;11.560;2023-12-20T00:03:41;7.80;;;0.73;;
13457;SDS011;6801;53.018;11.560;2023-12-20T00:06:08;3.55;;;0.63;;
13457;SDS011;6801;53.018;11.560;2023-12-20T00:08:35;7.55;;;2.10;;
13457;SDS011;6801;53.018;11.560;2023-12-20T00:11:02;4.18;;;1.20;;
13457;SDS011;6801;53.018;11.560;2023-12-20T00:13:29;4.18;;;1.33;;
13457;SDS011;6801;53.018;11.560;2023-12-20T00:15:57;8.25;;;3.47;;
13457;SDS011;6801;53.018;11.560;2023-12-20T00:18:24;5.10;;;1.65;;
13457;SDS011;6801;53.018;11.560;2023-12-20T00:20:51;7.03;;;2.58;;
13457;SDS011;6801;53.018;11.560;2023-12-20T00:23:18;4.85;;;1.98;;
13457;SDS011;6801;53.018;11.560;2023-12-20T00:25:45;10.77;;;3.22;;
13457;SDS011;6801;53.018;11.560;2023-12-20T00:28:12;4.70;;;0.80;;
13457;SDS011;6801;53.018;11.560;2023-12-20T00:30:39;5.72;;;2.33;;
13457;SDS011;6801;53.018;11.560;2023-12-20T00:33:07;3.67;;;1.20;;
13457;SDS011;6801;53.018;11.560;2023-12-20T00:35:34;9.05;;;3.08;;
13457;SDS011;6801;53.018;11.560;2023-12-20T00:38:01;2.78;;;0.75;;
13457;SDS011;6801;53.018;11.560;2023-12-20T00:40:30;9.25;;;3.42;;
13457;SDS011;6801;53.018;11.560;2023-12-20T00:42:57;6.85;;;1.27;;
13457;SDS011;6801;53.018;11.560;2023-12-20T00:45:24;6.85;;;1.92;;
13457;SDS011;6801;53.018;11.560;2023-12-20T00:47:51;4.38;;;1.25;;
13457;SDS011;6801;53.018;11.560;2023-12-20T00:50:19;3.35;;;0.90;;
13457;SDS011;6801;53.018;11.560;2023-12-20T00:52:47;4.93;;;0.95;;
13457;SDS011;6801;53.018;11.560;2023-12-20T00:55:14;8.95;;;0.93;;
13457;SDS011;6801;53.018;11.560;2023-12-20T00:57:41;4.85;;;1.45;;
13457;SDS011;6801;53.018;11.560;2023-12-20T01:00:08;2.97;;;0.85;;
13457;SDS011;6801;53.018;11.560;2023-12-20T01:02:35;10.25;;;3.17;;
13457;SDS011;6801;53.018;11.560;2023-12-20T01:05:03;5.88;;;1.98;;
13457;SDS011;6801;53.018;11.560;2023-12-20T01:07:31;5.20;;;2.08;;
13457;SDS011;6801;53.018;11.560;2023-12-20T01:09:59;8.07;;;3.40;;
13457;SDS011;6801;53.018;11.560;2023-12-20T01:12:26;11.75;;;2.53;;
13457;SDS011;6801;53.018;11.560;2023-12-20T01:14:53;14.20;;;4.90;;
13457;SDS011;6801;53.018;11.560;2023-12-20T01:17:20;7.95;;;3.85;;
13457;SDS011;6801;53.018;11.560;2023-12-20T01:19:47;10.02;;;3.38;;
13457;SDS011;6801;53.018;11.560;2023-12-20T01:22:14;10.98;;;2.80;;
13457;SDS011;6801;53.018;11.560;2023-12-20T01:24:43;10.07;;;3.20;;
13457;SDS011;6801;53.018;11.560;2023-12-20T01:27:10;5.85;;;1.65;;
13457;SDS011;6801;53.018;11.560;2023-12-20T01:29:36;9.32;;;2.13;;
13457;SDS011;6801;53.018;11.560;2023-12-20T01:32:04;8.15;;;2.38;;
13457;SDS011;6801;53.018;11.560;2023-12-20T01:34:31;7.75;;;2.13;;
13457;SDS011;6801;53.018;11.560;2023-12-20T01:36:58;10.13;;;2.05;;
13457;SDS011;6801;53.018;11.560;2023-12-20T01:39:25;7.28;;;2.15;;
13457;SDS011;6801;53.018;11.560;2023-12-20T01:41:54;8.57;;;3.30;;
13457;SDS011;6801;53.018;11.560;2023-12-20T01:44:21;12.52;;;1.70;;
13457;SDS011;6801;53.018;11.560;2023-12-20T01:46:48;13.75;;;2.17;;
13457;SDS011;6801;53.018;11.560;2023-12-20T01:49:15;8.20;;;2.53;;
13457;SDS011;6801;53.018;11.560;2023-12-20T01:51:42;8.35;;;2.30;;
13457;SDS011;6801;53.018;11.560;2023-12-20T01:54:10;8.77;;;3.05;;
13457;SDS011;6801;53.018;11.560;2023-12-20T01:56:37;9.10;;;2.90;;
13457;SDS011;6801;53.018;11.560;2023-12-20T01:59:07;21.38;;;5.47;;
13457;SDS011;6801;53.018;11.560;2023-12-20T02:01:34;11.93;;;4.47;;
13457;SDS011;6801;53.018;11.560;2023-12-20T02:04:01;6.43;;;1.35;;
13457;SDS011;6801;53.018;11.560;2023-12-20T02:06:29;9.13;;;1.75;;
13457;SDS011;6801;53.018;11.560;2023-12-20T02:08:57;4.63;;;1.15;;
13457;SDS011;6801;53.018;11.560;2023-12-20T02:11:24;2.92;;;0.75;;
13457;SDS011;6801;53.018;11.560;2023-12-20T02:13:51;7.47;;;1.67;;
13457;SDS011;6801;53.018;11.560;2023-12-20T02:16:20;6.40;;;1.60;;
13457;SDS011;6801;53.018;11.560;2023-12-20T02:18:47;8.25;;;1.10;;
13457;SDS011;6801;53.018;11.560;2023-12-20T02:21:18;8.55;;;1.92;;
13457;SDS011;6801;53.018;11.560;2023-12-20T02:23:47;14.63;;;1.85;;
13457;SDS011;6801;53.018;11.560;2023-12-20T02:26:14;10.23;;;1.85;;
13457;SDS011;6801;53.018;11.560;2023-12-20T02:28:41;9.73;;;1.90;;
13457;SDS011;6801;53.018;11.560;2023-12-20T02:31:08;9.85;;;1.77;;
13457;SDS011;6801;53.018;11.560;2023-12-20T02:33:35;7.40;;;1.33;;
13457;SDS011;6801;53.018;11.560;2023-12-20T02:36:05;6.45;;;1.15;;
13457;SDS011;6801;53.018;11.560;2023-12-20T02:38:33;7.80;;;1.20;;
13457;SDS011;6801;53.018;11.560;2023-12-20T02:41:01;6.75;;;1.52;;
13457;SDS011;6801;53.018;11.560;2023-12-20T02:43:28;5.57;;;1.08;;
13457;SDS011;6801;53.018;11.560;2023-12-20T02:45:55;11.32;;;1.38;;
13457;SDS011;6801;53.018;11.560;2023-12-20T02:48:22;6.15;;;1.20;;
13457;SDS011;6801;53.018;11.560;2023-12-20T02:50:49;8.77;;;1.75;;
13457;SDS011;6801;53.018;11.560;2023-12-20T02:53:16;7.90;;;1.15;;
13457;SDS011;6801;53.018;11.560;2023-12-20T02:55:43;10.20;;;1.60;;
13457;SDS011;6801;53.018;11.560;2023-12-20T02:58:11;7.85;;;1.95;;
13457;SDS011;6801;53.018;11.560;2023-12-20T03:00:38;8.73;;;1.40;;
13457;SDS011;6801;53.018;11.560;2023-12-20T03:03:05;7.40;;;1.30;;
13457;SDS011;6801;53.018;11.560;2023-12-20T03:05:32;10.80;;;1.40;;
13457;SDS011;6801;53.018;11.560;2023-12-20T03:07:59;5.75;;;1.40;;
13457;SDS011;6801;53.018;11.560;2023-12-20T03:10:26;12.60;;;1.30;;
13457;SDS011;6801;53.018;11.560;2023-12-20T03:12:53;8.95;;;1.25;;
13457;SDS011;6801;53.018;11.560;2023-12-20T03:15:21;7.95;;;1.40;;
13457;SDS011;6801;53.018;11.560;2023-12-20T03:17:48;12.32;;;1.23;;
13457;SDS011;6801;53.018;11.560;2023-12-20T03:20:15;6.25;;;1.42;;
13457;SDS011;6801;53.018;11.560;2023-12-20T03:22:42;6.63;;;1.13;;
13457;SDS011;6801;53.018;11.560;2023-12-20T03:25:09;8.23;;;1.52;;
13457;SDS011;6801;53.018;11.560;2023-12-20T03:27:36;11.40;;;1.58;;
13457;SDS011;6801;53.018;11.560;2023-12-20T03:30:04;10.05;;;1.92;;
13457;SDS011;6801;53.018;11.560;2023-12-20T03:32:33;13.80;;;1.52;;
13457;SDS011;6801;53.018;11.560;2023-12-20T03:35:00;10.50;;;1.42;;
13457;SDS011;6801;53.018;11.560;2023-12-20T03:37:28;15.52;;;1.52;;
13457;SDS011;6801;53.018;11.560;2023-12-20T03:39:54;7.10;;;1.15;;
13457;SDS011;6801;53.018;11.560;2023-12-20T03:42:21;13.02;;;1.58;;
13457;SDS011;6801;53.018;11.560;2023-12-20T03:44:48;8.15;;;1.27;;
13457;SDS011;6801;53.018;11.560;2023-12-20T03:47:15;13.32;;;2.00;;
13457;SDS011;6801;53.018;11.560;2023-12-20T03:49:44;7.85;;;1.27;;
13457;SDS011;6801;53.018;11.560;2023-12-20T03:52:10;10.90;;;1.30;;
13457;SDS011;6801;53.018;11.560;2023-12-20T03:54:38;9.18;;;1.52;;
13457;SDS011;6801;53.018;11.560;2023-12-20T03:57:05;15.85;;;1.67;;
13457;SDS011;6801;53.018;11.560;2023-12-20T03:59:34;7.10;;;1.20;;
13457;SDS011;6801;53.018;11.560;2023-12-20T04:02:02;8.87;;;1.27;;
13457;SDS011;6801;53.018;11.560;2023-12-20T04:04:29;10.57;;;2.67;;
13457;SDS011;6801;53.018;11.560;2023-12-20T04:06:57;11.55;;;1.75;;
13457;SDS011;6801;53.018;11.560;2023-12-20T04:09:24;13.82;;;1.80;;
13457;SDS011;6801;53.018;11.560;2023-12-20T04:11:52;9.55;;;1.35;;
13457;SDS011;6801;53.018;11.560;2023-12-20T04:14:19;7.63;;;1.73;;
13457;SDS011;6801;53.018;11.560;2023-12-20T04:16:46;11.52;;;1.25;;
13457;SDS011;6801;53.018;11.560;2023-12-20T04:19:13;7.63;;;1.13;;
13457;SDS011;6801;53.018;11.560;2023-12-20T04:21:40;9.85;;;2.78;;
13457;SDS011;6801;53.018;11.560;2023-12-20T04:24:08;10.07;;;1.52;;
13457;SDS011;6801;53.018;11.560;2023-12-20T04:26:35;7.85;;;1.13;;
13457;SDS011;6801;53.018;11.560;2023-12-20T04:29:02;13.23;;;1.80;;
13457;SDS011;6801;53.018;11.560;2023-12-20T04:31:29;8.88;;;1.30;;
13457;SDS011;6801;53.018;11.560;2023-12-20T04:33:56;10.70;;;1.73;;
13457;SDS011;6801;53.018;11.560;2023-12-20T04:36:23;7.20;;;1.20;;
13457;SDS011;6801;53.018;11.560;2023-12-20T04:38:52;8.10;;;2.03;;
13457;SDS011;6801;53.018;11.560;2023-12-20T04:41:20;11.35;;;1.02;;
13457;SDS011;6801;53.018;11.560;2023-12-20T04:43:47;9.45;;;1.50;;
13457;SDS011;6801;53.018;11.560;2023-12-20T04:46:14;11.35;;;1.52;;
13457;SDS011;6801;53.018;11.560;2023-12-20T04:48:41;7.68;;;1.73;;
13457;SDS011;6801;53.018;11.560;2023-12-20T04:51:08;6.95;;;1.58;;
13457;SDS011;6801;53.018;11.560;2023-12-20T04:53:35;5.93;;;1.30;;
13457;SDS011;6801;53.018;11.560;2023-12-20T04:56:02;10.95;;;2.28;;
13457;SDS011;6801;53.018;11.560;2023-12-20T04:58:31;12.30;;;2.33;;
13457;SDS011;6801;53.018;11.560;2023-12-20T05:00:58;10.80;;;1.48;;
13457;SDS011;6801;53.018;11.560;2023-12-20T05:03:25;11.70;;;1.67;;
13457;SDS011;6801;53.018;11.560;2023-12-20T05:05:52;5.70;;;1.10;;
13457;SDS011;6801;53.018;11.560;2023-12-20T05:08:19;8.77;;;1.00;;
13457;SDS011;6801;53.018;11.560;2023-12-20T05:10:46;8.45;;;1.30;;
13457;SDS011;6801;53.018;11.560;2023-12-20T05:13:13;11.05;;;1.30;;
13457;SDS011;6801;53.018;11.560;2023-12-20T05:15:41;8.80;;;1.17;;
13457;SDS011;6801;53.018;11.560;2023-12-20T05:18:08;11.63;;;1.55;;
13457;SDS011;6801;53.018;11.560;2023-12-20T05:20:35;6.18;;;1.00;;
13457;SDS011;6801;53.018;11.560;2023-12-20T05:23:02;6.45;;;1.70;;
13457;SDS011;6801;53.018;11.560;2023-12-20T05:25:29;16.40;;;1.70;;
13457;SDS011;6801;53.018;11.560;2023-12-20T05:27:56;10.48;;;1.10;;
13457;SDS011;6801;53.018;11.560;2023-12-20T05:30:23;11.75;;;1.23;;
13457;SDS011;6801;53.018;11.560;2023-12-20T05:32:51;5.18;;;1.50;;
13457;SDS011;6801;53.018;11.560;2023-12-20T05:35:18;9.82;;;1.30;;
13457;SDS011;6801;53.018;11.560;2023-12-20T05:37:47;9.43;;;1.70;;
13457;SDS011;6801;53.018;11.560;2023-12-20T05:40:14;10.90;;;1.92;;
13457;SDS011;6801;53.018;11.560;2023-12-20T05:42:41;7.57;;;1.20;;
13457;SDS011;6801;53.018;11.560;2023-12-20T05:45:08;8.85;;;1.30;;
13457;SDS011;6801;53.018;11.560;2023-12-20T05:47:36;11.48;;;1.98;;
13457;SDS011;6801;53.018;11.560;2023-12-20T05:50:04;7.90;;;1.65;;
13457;SDS011;6801;53.018;11.560;2023-12-20T05:52:32;12.60;;;1.90;;
13457;SDS011;6801;53.018;11.560;2023-12-20T05:54:59;4.75;;;0.98;;
13457;SDS011;6801;53.018;11.560;2023-12-20T05:57:27;5.85;;;1.25;;
13457;SDS011;6801;53.018;11.560;2023-12-20T05:59:54;9.00;;;1.30;;
13457;SDS011;6801;53.018;11.560;2023-12-20T06:02:21;10.45;;;1.35;;
13457;SDS011;6801;53.018;11.560;2023-12-20T06:04:48;9.40;;;2.08;;
13457;SDS011;6801;53.018;11.560;2023-12-20T06:07:16;6.55;;;1.42;;
13457;SDS011;6801;53.018;11.560;2023-12-20T06:09:43;9.93;;;1.20;;
13457;SDS011;6801;53.018;11.560;2023-12-20T06:12:10;11.82;;;1.75;;
13457;SDS011;6801;53.018;11.560;2023-12-20T06:14:37;8.80;;;1.38;;
13457;SDS011;6801;53.018;11.560;2023-12-20T06:17:04;8.93;;;1.30;;
13457;SDS011;6801;53.018;11.560;2023-12-20T06:19:31;9.23;;;1.52;;
13457;SDS011;6801;53.018;11.560;2023-12-20T06:21:58;8.55;;;1.42;;
13457;SDS011;6801;53.018;11.560;2023-12-20T06:24:26;10.50;;;1.80;;
13457;SDS011;6801;53.018;11.560;2023-12-20T06:26:53;6.07;;;1.42;;
13457;SDS011;6801;53.018;11.560;2023-12-20T06:29:19;13.43;;;1.65;;
13457;SDS011;6801;53.018;11.560;2023-12-20T06:31:46;12.13;;;1.65;;
13457;SDS011;6801;53.018;11.560;2023-12-20T06:34:13;14.43;;;2.15;;
13457;SDS011;6801;53.018;11.560;2023-12-20T06:36:40;13.02;;;2.47;;
13457;SDS011;6801;53.018;11.560;2023-12-20T06:39:07;13.80;;;2.03;;
13457;SDS011;6801;53.018;11.560;2023-12-20T06:41:35;13.50;;;1.75;;
13457;SDS011;6801;53.018;11.560;2023-12-20T06:44:02;11.55;;;1.50;;
13457;SDS011;6801;53.018;11.560;2023-12-20T06:46:29;13.52;;;1.73;;
13457;SDS011;6801;53.018;11.560;2023-12-20T06:48:56;9.25;;;1.65;;
13457;SDS011;6801;53.018;11.560;2023-12-20T06:51:23;7.10;;;2.15;;
13457;SDS011;6801;53.018;11.560;2023-12-20T06:53:51;12.80;;;1.38;;
13457;SDS011;6801;53.018;11.560;2023-12-20T06:56:18;13.40;;;2.67;;
13457;SDS011;6801;53.018;11.560;2023-12-20T06:58:47;7.60;;;2.13;;
13457;SDS011;6801;53.018;11.560;2023-12-20T07:01:14;12.75;;;1.45;;
13457;SDS011;6801;53.018;11.560;2023-12-20T07:03:41;9.27;;;1.40;;
13457;SDS011;6801;53.018;11.560;2023-12-20T07:06:08;10.32;;;1.90;;
13457;SDS011;6801;53.018;11.560;2023-12-20T07:08:35;10.32;;;1.80;;
13457;SDS011;6801;53.018;11.560;2023-12-20T07:11:02;9.80;;;2.10;;
13457;SDS011;6801;53.018;11.560;2023-12-20T07:13:29;10.48;;;1.98;;
13457;SDS011;6801;53.018;11.560;2023-12-20T07:15:58;10.18;;;1.73;;
13457;SDS011;6801;53.018;11.560;2023-12-20T07:18:25;9.75;;;1.73;;
13457;SDS011;6801;53.018;11.560;2023-12-20T07:20:52;12.25;;;2.28;;
13457;SDS011;6801;53.018;11.560;2023-12-20T07:23:19;17.83;;;1.70;;
13457;SDS011;6801;53.018;11.560;2023-12-20T07:25:46;10.35;;;2.22;;
13457;SDS011;6801;53.018;11.560;2023-12-20T07:28:13;13.52;;;2.47;;
13457;SDS011;6801;53.018;11.560;2023-12-20T07:30:40;15.43;;;2.35;;
13457;SDS011;6801;53.018;11.560;2023-12-20T07:33:09;9.85;;;1.83;;
13457;SDS011;6801;53.018;11.560;2023-12-20T07:35:37;12.10;;;1.98;;
13457;SDS011;6801;53.018;11.560;2023-12-20T07:38:04;12.85;;;1.83;;
13457;SDS011;6801;53.018;11.560;2023-12-20T07:40:31;8.82;;;1.98;;
13457;SDS011;6801;53.018;11.560;2023-12-20T07:42:58;12.85;;;2.10;;
13457;SDS011;6801;53.018;11.560;2023-12-20T07:45:25;15.02;;;2.65;;
13457;SDS011;6801;53.018;11.560;2023-12-20T07:47:52;11.68;;;1.70;;
13457;SDS011;6801;53.018;11.560;2023-12-20T07:50:21;10.40;;;1.73;;
13457;SDS011;6801;53.018;11.560;2023-12-20T07:52:48;12.60;;;2.10;;
13457;SDS011;6801;53.018;11.560;2023-12-20T07:55:15;11.80;;;2.30;;
13457;SDS011;6801;53.018;11.560;2023-12-20T07:57:42;18.52;;;2.35;;
13457;SDS011;6801;53.018;11.560;2023-12-20T08:00:09;14.30;;;3.28;;
13457;SDS011;6801;53.018;11.560;2023-12-20T08:02:37;11.43;;;2.13;;
13457;SDS011;6801;53.018;11.560;2023-12-20T08:05:04;13.63;;;2.05;;
13457;SDS011;6801;53.018;11.560;2023-12-20T08:07:32;10.93;;;1.65;;
13457;SDS011;6801;53.018;11.560;2023-12-20T08:09:59;10.35;;;2.90;;
13457;SDS011;6801;53.018;11.560;2023-12-20T08:12:27;12.35;;;1.63;;
13457;SDS011;6801;53.018;11.560;2023-12-20T08:14:53;6.85;;;1.83;;
13457;SDS011;6801;53.018;11.560;2023-12-20T08:17:22;9.95;;;1.48;;
13457;SDS011;6801;53.018;11.560;2023-12-20T08:19:49;9.10;;;2.05;;
13457;SDS011;6801;53.018;11.560;2023-12-20T08:22:16;13.27;;;3.30;;
13457;SDS011;6801;53.018;11.560;2023-12-20T08:24:44;9.80;;;2.60;;
13457;SDS011;6801;53.018;11.560;2023-12-20T08:27:11;15.30;;;2.13;;
13457;SDS011;6801;53.018;11.560;2023-12-20T08:29:38;16.10;;;2.45;;
13457;SDS011;6801;53.018;11.560;2023-12-20T08:32:05;11.25;;;2.15;;
13457;SDS011;6801;53.018;11.560;2023-12-20T08:34:32;13.45;;;1.73;;
13457;SDS011;6801;53.018;11.560;2023-12-20T08:36:59;9.70;;;1.60;;
13457;SDS011;6801;53.018;11.560;2023-12-20T08:39:26;15.38;;;2.60;;
13457;SDS011;6801;53.018;11.560;2023-12-20T08:41:56;12.18;;;1.60;;
13457;SDS011;6801;53.018;11.560;2023-12-20T08:44:23;13.30;;;1.80;;
13457;SDS011;6801;53.018;11.560;2023-12-20T08:46:50;13.25;;;2.10;;
13457;SDS011;6801;53.018;11.560;2023-12-20T08:49:20;22.98;;;4.97;;
13457;SDS011;6801;53.018;11.560;2023-12-20T08:51:47;14.25;;;3.38;;
13457;SDS011;6801;53.018;11.560;2023-12-20T08:54:14;10.32;;;2.53;;
13457;SDS011;6801;53.018;11.560;2023-12-20T08:56:41;19.30;;;3.25;;
13457;SDS011;6801;53.018;11.560;2023-12-20T08:59:10;15.57;;;2.67;;
13457;SDS011;6801;53.018;11.560;2023-12-20T09:01:37;15.05;;;2.08;;
13457;SDS011;6801;53.018;11.560;2023-12-20T09:04:04;13.60;;;2.83;;
13457;SDS011;6801;53.018;11.560;2023-12-20T09:06:31;16.88;;;2.50;;
13457;SDS011;6801;53.018;11.560;2023-12-20T09:08:58;6.93;;;2.08;;
13457;SDS011;6801;53.018;11.560;2023-12-20T09:11:25;16.00;;;2.63;;
13457;SDS011;6801;53.018;11.560;2023-12-20T09:13:52;18.80;;;2.97;;
13457;SDS011;6801;53.018;11.560;2023-12-20T09:16:20;9.93;;;2.05;;
13457;SDS011;6801;53.018;11.560;2023-12-20T09:18:47;14.77;;;2.15;;
13457;SDS011;6801;53.018;11.560;2023-12-20T09:21:15;15.05;;;2.50;;
13457;SDS011;6801;53.018;11.560;2023-12-20T09:23:42;8.32;;;2.13;;
13457;SDS011;6801;53.018;11.560;2023-12-20T09:26:09;15.93;;;1.73;;
13457;SDS011;6801;53.018;11.560;2023-12-20T09:28:36;14.80;;;2.85;;
13457;SDS011;6801;53.018;11.560;2023-12-20T09:31:04;10.68;;;1.98;;
13457;SDS011;6801;53.018;11.560;2023-12-20T09:33:33;10.18;;;2.47;;
13457;SDS011;6801;53.018;11.560;2023-12-20T09:36:00;15.90;;;2.55;;
13457;SDS011;6801;53.018;11.560;2023-12-20T09:38:27;14.75;;;3.55;;
13457;SDS011;6801;53.018;11.560;2023-12-20T09:40:54;13.85;;;2.30;;
13457;SDS011;6801;53.018;11.560;2023-12-20T09:43:21;9.27;;;2.13;;
13457;SDS011;6801;53.018;11.560;2023-12-20T09:45:50;12.40;;;2.67;;
13457;SDS011;6801;53.018;11.560;2023-12-20T09:48:19;16.50;;;2.65;;
13457;SDS011;6801;53.018;11.560;2023-12-20T09:50:48;15.32;;;2.70;;
13457;SDS011;6801;53.018;11.560;2023-12-20T09:53:15;17.08;;;2.88;;
13457;SDS011;6801;53.018;11.560;2023-12-20T09:55:44;14.40;;;2.05;;
13457;SDS011;6801;53.018;11.560;2023-12-20T09:58:11;10.07;;;1.88;;
13457;SDS011;6801;53.018;11.560;2023-12-20T10:00:38;16.02;;;2.83;;
13457;SDS011;6801;53.018;11.560;2023-12-20T10:03:05;16.35;;;3.42;;
13457;SDS011;6801;53.018;11.560;2023-12-20T10:05:33;20.10;;;2.83;;
13457;SDS011;6801;53.018;11.560;2023-12-20T10:08:02;11.45;;;2.08;;
13457;SDS011;6801;53.018;11.560;2023-12-20T10:10:29;18.30;;;6.45;;
13457;SDS011;6801;53.018;11.560;2023-12-20T10:13:03;12.90;;;2.45;;
13457;SDS011;6801;53.018;11.560;2023-12-20T10:15:32;11.38;;;2.60;;
13457;SDS011;6801;53.018;11.560;2023-12-20T10:17:59;12.15;;;2.45;;
13457;SDS011;6801;53.018;11.560;2023-12-20T10:20:26;11.75;;;2.60;;
13457;SDS011;6801;53.018;11.560;2023-12-20T10:22:54;10.35;;;1.70;;
13457;SDS011;6801;53.018;11.560;2023-12-20T10:25:23;14.10;;;1.80;;
13457;SDS011;6801;53.018;11.560;2023-12-20T10:28:08;12.15;;;2.47;;
13457;SDS011;6801;53.018;11.560;2023-12-20T10:30:36;9.35;;;1.70;;
13457;SDS011;6801;53.018;11.560;2023-12-20T10:33:03;11.20;;;2.00;;
13457;SDS011;6801;53.018;11.560;2023-12-20T10:35:32;10.82;;;1.92;;
13457;SDS011;6801;53.018;11.560;2023-12-20T10:38:00;13.02;;;2.50;;
13457;SDS011;6801;53.018;11.560;2023-12-20T10:40:31;10.85;;;2.05;;
13457;SDS011;6801;53.018;11.560;2023-12-20T10:43:01;9.43;;;1.90;;
13457;SDS011;6801;53.018;11.560;2023-12-20T10:45:29;10.68;;;2.20;;
13457;SDS011;6801;53.018;11.560;2023-12-20T10:47:56;9.95;;;1.40;;
13457;SDS011;6801;53.018;11.560;2023-12-20T10:50:26;11.55;;;2.33;;
13457;SDS011;6801;53.018;11.560;2023-12-20T10:52:55;11.98;;;2.30;;
13457;SDS011;6801;53.018;11.560;2023-12-20T10:55:22;9.25;;;1.45;;
13457;SDS011;6801;53.018;11.560;2023-12-20T10:57:51;7.20;;;0.98;;
13457;SDS011;6801;53.018;11.560;2023-12-20T11:00:18;5.72;;;1.35;;
13457;SDS011;6801;53.018;11.560;2023-12-20T11:02:48;8.73;;;1.45;;
13457;SDS011;6801;53.018;11.560;2023-12-20T11:05:19;5.63;;;1.40;;
13457;SDS011;6801;53.018;11.560;2023-12-20T11:07:58;7.90;;;0.95;;
13457;SDS011;6801;53.018;11.560;2023-12-20T11:10:31;8.65;;;1.88;;
13457;SDS011;6801;53.018;11.560;2023-12-20T11:13:06;7.28;;;0.95;;
13457;SDS011;6801;53.018;11.560;2023-12-20T11:15:36;5.90;;;0.80;;
13457;SDS011;6801;53.018;11.560;2023-12-20T11:18:04;2.90;;;0.38;;
13457;SDS011;6801;53.018;11.560;2023-12-20T11:20:35;1.65;;;0.47;;
13457;SDS011;6801;53.018;11.560;2023-12-20T11:23:03;4.18;;;0.70;;
13457;SDS011;6801;53.018;11.560;2023-12-20T11:25:34;1.02;;;0.25;;
13457;SDS011;6801;53.018;11.560;2023-12-20T11:30:40;1.00;;;0.20;;
13457;SDS011;6801;53.018;11.560;2023-12-20T11:33:08;0.52;;;0.15;;
13457;SDS011;6801;53.018;11.560;2023-12-20T11:35:35;0.08;;;0.00;;
13457;SDS011;6801;53.018;11.560;2023-12-20T11:38:04;0.32;;;0.10;;
13457;SDS011;6801;53.018;11.560;2023-12-20T11:40:34;0.88;;;0.20;;
13457;SDS011;6801;53.018;11.560;2023-12-20T11:43:02;0.30;;;0.20;;
13457;SDS011;6801;53.018;11.560;2023-12-20T11:45:32;0.30;;;0.08;;
13457;SDS011;6801;53.018;11.560;2023-12-20T11:48:00;0.40;;;0.40;;
13457;SDS011;6801;53.018;11.560;2023-12-20T11:50:28;2.58;;;0.30;;
13457;SDS011;6801;53.018;11.560;2023-12-20T11:52:56;1.40;;;0.35;;
13457;SDS011;6801;53.018;11.560;2023-12-20T11:55:23;2.10;;;0.35;;
13457;SDS011;6801;53.018;11.560;2023-12-20T11:57:50;1.77;;;0.80;;
13457;SDS011;6801;53.018;11.560;2023-12-20T12:00:18;3.22;;;0.45;;
13457;SDS011;6801;53.018;11.560;2023-12-20T12:02:57;0.65;;;0.32;;
13457;SDS011;6801;53.018;11.560;2023-12-20T12:05:24;1.75;;;0.60;;
13457;SDS011;6801;53.018;11.560;2023-12-20T12:07:52;2.97;;;0.60;;
13457;SDS011;6801;53.018;11.560;2023-12-20T12:10:20;2.55;;;0.50;;
13457;SDS011;6801;53.018;11.560;2023-12-20T12:12:48;1.52;;;0.60;;
13457;SDS011;6801;53.018;11.560;2023-12-20T12:15:15;2.22;;;0.40;;
13457;SDS011;6801;53.018;11.560;2023-12-20T12:17:42;4.53;;;0.85;;
13457;SDS011;6801;53.018;11.560;2023-12-20T12:20:11;4.35;;;0.80;;
13457;SDS011;6801;53.018;11.560;2023-12-20T12:22:38;3.38;;;0.70;;
13457;SDS011;6801;53.018;11.560;2023-12-20T12:25:12;2.40;;;0.52;;
13457;SDS011;6801;53.018;11.560;2023-12-20T12:27:40;2.47;;;0.63;;
13457;SDS011;6801;53.018;11.560;2023-12-20T12:30:08;4.85;;;1.42;;
13457;SDS011;6801;53.018;11.560;2023-12-20T12:32:38;6.80;;;0.60;;
13457;SDS011;6801;53.018;11.560;2023-12-20T12:35:05;4.03;;;0.65;;
13457;SDS011;6801;53.018;11.560;2023-12-20T12:37:36;5.72;;;1.08;;
13457;SDS011;6801;53.018;11.560;2023-12-20T12:40:06;4.00;;;0.63;;
13457;SDS011;6801;53.018;11.560;2023-12-20T12:42:36;4.35;;;1.52;;
13457;SDS011;6801;53.018;11.560;2023-12-20T12:45:04;4.28;;;0.75;;
13457;SDS011;6801;53.018;11.560;2023-12-20T12:47:32;2.25;;;0.40;;
13457;SDS011;6801;53.018;11.560;2023-12-20T12:50:00;2.38;;;0.55;;
13457;SDS011;6801;53.018;11.560;2023-12-20T12:52:27;2.72;;;0.60;;
13457;SDS011;6801;53.018;11.560;2023-12-20T12:54:55;2.78;;;0.32;;
13457;SDS011;6801;53.018;11.560;2023-12-20T12:57:22;6.18;;;1.55;;
13457;SDS011;6801;53.018;11.560;2023-12-20T12:59:49;4.25;;;1.05;;
13457;SDS011;6801;53.018;11.560;2023-12-20T13:02:16;6.85;;;0.80;;
13457;SDS011;6801;53.018;11.560;2023-12-20T13:04:43;3.17;;;0.65;;
13457;SDS011;6801;53.018;11.560;2023-12-20T13:07:11;4.93;;;0.68;;
13457;SDS011;6801;53.018;11.560;2023-12-20T13:09:38;2.33;;;1.02;;
13457;SDS011;6801;53.018;11.560;2023-12-20T13:12:07;4.45;;;0.65;;
13457;SDS011;6801;53.018;11.560;2023-12-20T13:14:35;5.57;;;0.93;;
13457;SDS011;6801;53.018;11.560;2023-12-20T13:17:03;6.07;;;0.77;;
13457;SDS011;6801;53.018;11.560;2023-12-20T13:19:31;2.72;;;0.63;;
13457;SDS011;6801;53.018;11.560;2023-12-20T13:21:58;3.45;;;0.70;;
13457;SDS011;6801;53.018;11.560;2023-12-20T13:24:25;3.90;;;0.43;;
13457;SDS011;6801;53.018;11.560;2023-12-20T13:26:52;9.32;;;1.15;;
13457;SDS011;6801;53.018;11.560;2023-12-20T13:29:20;4.43;;;1.00;;
13457;SDS011;6801;53.018;11.560;2023-12-20T13:31:47;3.72;;;0.75;;
13457;SDS011;6801;53.018;11.560;2023-12-20T13:34:15;5.50;;;0.98;;
13457;SDS011;6801;53.018;11.560;2023-12-20T13:36:43;6.70;;;0.95;;
13457;SDS011;6801;53.018;11.560;2023-12-20T13:39:12;6.35;;;0.73;;
13457;SDS011;6801;53.018;11.560;2023-12-20T13:41:39;7.13;;;1.33;;
13457;SDS011;6801;53.018;11.560;2023-12-20T13:44:07;6.55;;;1.15;;
13457;SDS011;6801;53.018;11.560;2023-12-20T13:46:35;10.45;;;1.73;;
13457;SDS011;6801;53.018;11.560;2023-12-20T13:49:02;8.00;;;1.42;;
13457;SDS011;6801;53.018;11.560;2023-12-20T13:51:30;10.68;;;1.58;;
13457;SDS011;6801;53.018;11.560;2023-12-20T13:53:57;8.15;;;0.80;;
13457;SDS011;6801;53.018;11.560;2023-12-20T13:56:24;6.97;;;1.05;;
13457;SDS011;6801;53.018;11.560;2023-12-20T13:58:51;6.55;;;0.85;;
13457;SDS011;6801;53.018;11.560;2023-12-20T14:01:18;7.60;;;1.65;;
13457;SDS011;6801;53.018;11.560;2023-12-20T14:03:46;2.05;;;0.50;;
13457;SDS011;6801;53.018;11.560;2023-12-20T14:06:13;7.20;;;1.08;;
13457;SDS011;6801;53.018;11.560;2023-12-20T14:08:41;6.47;;;1.92;;
13457;SDS011;6801;53.018;11.560;2023-12-20T14:11:08;8.25;;;2.00;;
13457;SDS011;6801;53.018;11.560;2023-12-20T14:13:35;8.20;;;1.48;;
13457;SDS011;6801;53.018;11.560;2023-12-20T14:16:02;6.00;;;1.30;;
13457;SDS011;6801;53.018;11.560;2023-12-20T14:18:30;10.18;;;1.40;;
13457;SDS011;6801;53.018;11.560;2023-12-20T14:20:58;4.72;;;0.88;;
13457;SDS011;6801;53.018;11.560;2023-12-20T14:23:25;3.53;;;0.80;;
13457;SDS011;6801;53.018;11.560;2023-12-20T14:25:52;5.18;;;1.02;;
13457;SDS011;6801;53.018;11.560;2023-12-20T14:28:21;5.63;;;0.50;;
13457;SDS011;6801;53.018;11.560;2023-12-20T14:30:47;8.40;;;1.10;;
13457;SDS011;6801;53.018;11.560;2023-12-20T14:33:15;7.75;;;0.93;;
13457;SDS011;6801;53.018;11.560;2023-12-20T14:35:42;8.45;;;1.35;;
13457;SDS011;6801;53.018;11.560;2023-12-20T14:38:11;4.50;;;1.25;;
13457;SDS011;6801;53.018;11.560;2023-12-20T14:40:39;6.70;;;1.37;;
13457;SDS011;6801;53.018;11.560;2023-12-20T14:43:06;9.70;;;1.35;;
13457;SDS011;6801;53.018;11.560;2023-12-20T14:45:33;6.57;;;1.40;;
13457;SDS011;6801;53.018;11.560;2023-12-20T14:48:00;8.35;;;1.27;;